sensor_id;sensor_type;location;lat;lon;timestamp;P1;durP1;ratioP1;P2;durP2;ratioP2
6342;SDS011;3204;42.698;23.298;2023-08-30T04:33:27;12.25;;;6.47;;
6342;SDS011;3204;42.698;23.298;2023-08-30T04:35:53;8.90;;;7.28;;
6342;SDS011;3204;42.698;23.298;2023-08-30T04:38:20;8.82;;;6.57;;
6342;SDS011;3204;42.698;23.298;2023-08-30T04:40:46;10.18;;;6.75;;
6342;SDS011;3204;42.698;23.298;2023-08-30T04:43:12;8.48;;;6.53;;
6342;SDS011;3204;42.698;23.298;2023-08-30T04:45:37;6.22;;;5.22;;
6342;SDS011;3204;42.698;23.298;2023-08-30T04:48:03;7.95;;;5.55;;
6342;SDS011;3204;42.698;23.298;2023-08-30T04:50:29;5.55;;;5.10;;
6342;SDS011;3204;42.698;23.298;2023-08-30T04:52:55;7.45;;;5.97;;
6342;SDS011;3204;42.698;23.298;2023-08-30T04:55:21;6.25;;;5.47;;
6342;SDS011;3204;42.698;23.298;2023-08-30T04:57:46;7.95;;;5.28;;
6342;SDS011;3204;42.698;23.298;2023-08-30T05:00:12;6.50;;;5.38;;
6342;SDS011;3204;42.698;23.298;2023-08-30T05:02:39;5.90;;;5.35;;
6342;SDS011;3204;42.698;23.298;2023-08-30T05:05:06;5.75;;;5.20;;
6342;SDS011;3204;42.698;23.298;2023-08-30T05:07:31;6.70;;;4.80;;
6342;SDS011;3204;42.698;23.298;2023-08-30T05:09:56;4.95;;;4.55;;
6342;SDS011;3204;42.698;23.298;2023-08-30T05:12:22;5.63;;;4.60;;
6342;SDS011;3204;42.698;23.298;2023-08-30T05:14:47;5.60;;;4.28;;
6342;SDS011;3204;42.698;23.298;2023-08-30T05:17:13;4.53;;;4.13;;
6342;SDS011;3204;42.698;23.298;2023-08-30T05:19:38;7.53;;;4.80;;
6342;SDS011;3204;42.698;23.298;2023-08-30T05:22:03;7.22;;;4.50;;
6342;SDS011;3204;42.698;23.298;2023-08-30T05:24:29;4.95;;;4.30;;
6342;SDS011;3204;42.698;23.298;2023-08-30T05:26:54;7.78;;;3.47;;
6342;SDS011;3204;42.698;23.298;2023-08-30T05:29:20;4.50;;;3.70;;
6342;SDS011;3204;42.698;23.298;2023-08-30T05:31:45;6.47;;;3.90;;
6342;SDS011;3204;42.698;23.298;2023-08-30T05:34:11;5.00;;;3.90;;
6342;SDS011;3204;42.698;23.298;2023-08-30T05:36:36;6.80;;;4.05;;
6342;SDS011;3204;42.698;23.298;2023-08-30T05:39:02;4.57;;;4.30;;
6342;SDS011;3204;42.698;23.298;2023-08-30T05:41:28;6.97;;;4.53;;
6342;SDS011;3204;42.698;23.298;2023-08-30T05:43:54;4.68;;;4.28;;
6342;SDS011;3204;42.698;23.298;2023-08-30T05:46:20;7.32;;;4.60;;
6342;SDS011;3204;42.698;23.298;2023-08-30T05:48:46;4.68;;;4.22;;
6342;SDS011;3204;42.698;23.298;2023-08-30T05:51:11;4.63;;;4.20;;
6342;SDS011;3204;42.698;23.298;2023-08-30T05:53:36;6.57;;;4.00;;
6342;SDS011;3204;42.698;23.298;2023-08-30T05:56:03;6.22;;;3.75;;
6342;SDS011;3204;42.698;23.298;2023-08-30T05:58:28;5.47;;;4.32;;
6342;SDS011;3204;42.698;23.298;2023-08-30T06:00:54;5.03;;;4.60;;
6342;SDS011;3204;42.698;23.298;2023-08-30T06:03:20;5.03;;;4.32;;
6342;SDS011;3204;42.698;23.298;2023-08-30T06:05:45;6.50;;;4.20;;
6342;SDS011;3204;42.698;23.298;2023-08-30T06:08:11;4.78;;;3.83;;
6342;SDS011;3204;42.698;23.298;2023-08-30T06:10:37;5.35;;;4.40;;
6342;SDS011;3204;42.698;23.298;2023-08-30T06:13:03;6.22;;;4.32;;
6342;SDS011;3204;42.698;23.298;2023-08-30T06:15:29;4.63;;;4.28;;
6342;SDS011;3204;42.698;23.298;2023-08-30T06:17:54;6.97;;;4.65;;
6342;SDS011;3204;42.698;23.298;2023-08-30T06:20:20;4.40;;;3.92;;
6342;SDS011;3204;42.698;23.298;2023-08-30T06:22:45;5.43;;;4.63;;
6342;SDS011;3204;42.698;23.298;2023-08-30T06:25:11;4.90;;;4.53;;
6342;SDS011;3204;42.698;23.298;2023-08-30T06:27:54;4.80;;;4.35;;
6342;SDS011;3204;42.698;23.298;2023-08-30T06:30:21;4.10;;;3.78;;
6342;SDS011;3204;42.698;23.298;2023-08-30T06:32:47;5.80;;;4.00;;
6342;SDS011;3204;42.698;23.298;2023-08-30T06:35:14;6.07;;;3.58;;
6342;SDS011;3204;42.698;23.298;2023-08-30T06:37:40;8.32;;;4.07;;
6342;SDS011;3204;42.698;23.298;2023-08-30T06:40:05;4.97;;;4.20;;
6342;SDS011;3204;42.698;23.298;2023-08-30T06:42:31;4.85;;;3.92;;
6342;SDS011;3204;42.698;23.298;2023-08-30T06:44:57;4.32;;;4.03;;
6342;SDS011;3204;42.698;23.298;2023-08-30T06:47:22;4.68;;;4.30;;
6342;SDS011;3204;42.698;23.298;2023-08-30T06:49:48;5.10;;;4.60;;
6342;SDS011;3204;42.698;23.298;2023-08-30T06:52:13;4.05;;;3.75;;
6342;SDS011;3204;42.698;23.298;2023-08-30T06:54:39;4.60;;;4.20;;
6342;SDS011;3204;42.698;23.298;2023-08-30T06:57:04;4.50;;;4.10;;
6342;SDS011;3204;42.698;23.298;2023-08-30T06:59:32;5.13;;;4.50;;
6342;SDS011;3204;42.698;23.298;2023-08-30T07:01:57;4.75;;;4.45;;
6342;SDS011;3204;42.698;23.298;2023-08-30T07:04:23;4.78;;;4.47;;
6342;SDS011;3204;42.698;23.298;2023-08-30T07:06:48;4.90;;;4.50;;
6342;SDS011;3204;42.698;23.298;2023-08-30T07:09:14;5.32;;;4.93;;
6342;SDS011;3204;42.698;23.298;2023-08-30T07:11:41;5.60;;;4.85;;
6342;SDS011;3204;42.698;23.298;2023-08-30T07:14:09;5.40;;;4.70;;
6342;SDS011;3204;42.698;23.298;2023-08-30T07:16:34;6.80;;;5.50;;
6342;SDS011;3204;42.698;23.298;2023-08-30T07:19:00;5.72;;;5.25;;
6342;SDS011;3204;42.698;23.298;2023-08-30T07:21:27;6.47;;;5.20;;
6342;SDS011;3204;42.698;23.298;2023-08-30T07:23:52;5.43;;;5.03;;
6342;SDS011;3204;42.698;23.298;2023-08-30T07:26:17;5.60;;;5.03;;
6342;SDS011;3204;42.698;23.298;2023-08-30T07:28:43;6.75;;;5.50;;
6342;SDS011;3204;42.698;23.298;2023-08-30T07:31:08;7.40;;;5.85;;
6342;SDS011;3204;42.698;23.298;2023-08-30T07:33:34;8.77;;;5.82;;
6342;SDS011;3204;42.698;23.298;2023-08-30T07:36:00;6.68;;;5.72;;
6342;SDS011;3204;42.698;23.298;2023-08-30T07:38:26;7.35;;;6.65;;
6342;SDS011;3204;42.698;23.298;2023-08-30T07:40:51;5.93;;;5.30;;
6342;SDS011;3204;42.698;23.298;2023-08-30T07:43:17;7.72;;;6.00;;
6342;SDS011;3204;42.698;23.298;2023-08-30T07:45:42;8.13;;;5.50;;
6342;SDS011;3204;42.698;23.298;2023-08-30T07:48:07;8.57;;;5.35;;
6342;SDS011;3204;42.698;23.298;2023-08-30T07:50:33;7.82;;;5.10;;
6342;SDS011;3204;42.698;23.298;2023-08-30T07:52:58;6.10;;;5.40;;
6342;SDS011;3204;42.698;23.298;2023-08-30T07:55:24;5.60;;;5.05;;
6342;SDS011;3204;42.698;23.298;2023-08-30T07:57:49;5.97;;;4.80;;
6342;SDS011;3204;42.698;23.298;2023-08-30T08:00:15;5.70;;;5.15;;
6342;SDS011;3204;42.698;23.298;2023-08-30T08:02:40;5.40;;;4.90;;
6342;SDS011;3204;42.698;23.298;2023-08-30T08:05:06;5.25;;;4.55;;
6342;SDS011;3204;42.698;23.298;2023-08-30T08:07:31;4.95;;;4.43;;
6342;SDS011;3204;42.698;23.298;2023-08-30T08:09:57;5.00;;;4.50;;
6342;SDS011;3204;42.698;23.298;2023-08-30T08:12:23;5.07;;;4.65;;
6342;SDS011;3204;42.698;23.298;2023-08-30T08:14:48;4.65;;;4.25;;
6342;SDS011;3204;42.698;23.298;2023-08-30T08:17:13;4.85;;;4.45;;
6342;SDS011;3204;42.698;23.298;2023-08-30T08:19:39;7.30;;;4.45;;
6342;SDS011;3204;42.698;23.298;2023-08-30T08:22:05;5.43;;;4.95;;
6342;SDS011;3204;42.698;23.298;2023-08-30T08:24:31;4.88;;;4.20;;
6342;SDS011;3204;42.698;23.298;2023-08-30T08:26:57;4.88;;;4.47;;
6342;SDS011;3204;42.698;23.298;2023-08-30T08:29:22;4.70;;;4.40;;
6342;SDS011;3204;42.698;23.298;2023-08-30T08:31:47;5.13;;;3.92;;
6342;SDS011;3204;42.698;23.298;2023-08-30T08:34:13;5.03;;;4.28;;
6342;SDS011;3204;42.698;23.298;2023-08-30T08:36:40;5.65;;;4.20;;
6342;SDS011;3204;42.698;23.298;2023-08-30T08:39:07;3.85;;;3.55;;
6342;SDS011;3204;42.698;23.298;2023-08-30T08:41:41;5.95;;;3.80;;
6342;SDS011;3204;42.698;23.298;2023-08-30T08:44:09;4.80;;;4.07;;
6342;SDS011;3204;42.698;23.298;2023-08-30T08:46:35;6.25;;;3.50;;
6342;SDS011;3204;42.698;23.298;2023-08-30T08:49:05;4.38;;;3.83;;
6342;SDS011;3204;42.698;23.298;2023-08-30T08:51:32;4.20;;;3.80;;
6342;SDS011;3204;42.698;23.298;2023-08-30T08:54:01;8.23;;;3.58;;
6342;SDS011;3204;42.698;23.298;2023-08-30T08:56:29;3.75;;;3.33;;
6342;SDS011;3204;42.698;23.298;2023-08-30T08:58:56;3.42;;;3.15;;
6342;SDS011;3204;42.698;23.298;2023-08-30T09:01:21;4.53;;;4.13;;
6342;SDS011;3204;42.698;23.298;2023-08-30T09:03:48;5.93;;;3.65;;
6342;SDS011;3204;42.698;23.298;2023-08-30T09:06:15;4.25;;;3.08;;
6342;SDS011;3204;42.698;23.298;2023-08-30T09:08:41;6.70;;;3.42;;
6342;SDS011;3204;42.698;23.298;2023-08-30T09:11:06;3.97;;;3.67;;
6342;SDS011;3204;42.698;23.298;2023-08-30T09:13:31;3.47;;;3.28;;
6342;SDS011;3204;42.698;23.298;2023-08-30T09:15:57;4.03;;;3.15;;
6342;SDS011;3204;42.698;23.298;2023-08-30T09:18:24;3.55;;;3.25;;
6342;SDS011;3204;42.698;23.298;2023-08-30T09:20:52;5.28;;;4.00;;
6342;SDS011;3204;42.698;23.298;2023-08-30T09:23:18;3.85;;;3.55;;
6342;SDS011;3204;42.698;23.298;2023-08-30T09:25:45;3.63;;;3.33;;
6342;SDS011;3204;42.698;23.298;2023-08-30T09:28:11;6.78;;;3.80;;
6342;SDS011;3204;42.698;23.298;2023-08-30T09:30:37;4.22;;;3.80;;
6342;SDS011;3204;42.698;23.298;2023-08-30T09:33:04;4.38;;;4.00;;
6342;SDS011;3204;42.698;23.298;2023-08-30T09:35:30;4.35;;;3.50;;
6342;SDS011;3204;42.698;23.298;2023-08-30T09:37:56;4.95;;;4.10;;
6342;SDS011;3204;42.698;23.298;2023-08-30T09:40:21;4.32;;;4.03;;
6342;SDS011;3204;42.698;23.298;2023-08-30T09:42:47;4.05;;;3.70;;
6342;SDS011;3204;42.698;23.298;2023-08-30T09:45:22;4.63;;;4.22;;
6342;SDS011;3204;42.698;23.298;2023-08-30T09:47:48;4.88;;;4.20;;
6342;SDS011;3204;42.698;23.298;2023-08-30T09:50:15;4.50;;;4.20;;
6342;SDS011;3204;42.698;23.298;2023-08-30T09:52:43;5.45;;;4.07;;
6342;SDS011;3204;42.698;23.298;2023-08-30T09:55:11;5.40;;;4.47;;
6342;SDS011;3204;42.698;23.298;2023-08-30T09:57:36;5.60;;;4.45;;
6342;SDS011;3204;42.698;23.298;2023-08-30T10:00:03;5.18;;;4.65;;
6342;SDS011;3204;42.698;23.298;2023-08-30T10:02:30;7.80;;;4.82;;
6342;SDS011;3204;42.698;23.298;2023-08-30T10:04:57;7.80;;;4.80;;
6342;SDS011;3204;42.698;23.298;2023-08-30T10:07:23;4.40;;;4.20;;
6342;SDS011;3204;42.698;23.298;2023-08-30T10:09:50;4.97;;;4.43;;
6342;SDS011;3204;42.698;23.298;2023-08-30T10:12:19;4.80;;;4.45;;
6342;SDS011;3204;42.698;23.298;2023-08-30T10:14:47;4.75;;;4.35;;
6342;SDS011;3204;42.698;23.298;2023-08-30T10:17:12;5.93;;;4.55;;
6342;SDS011;3204;42.698;23.298;2023-08-30T10:19:42;5.65;;;5.00;;
6342;SDS011;3204;42.698;23.298;2023-08-30T10:22:10;5.15;;;4.70;;
6342;SDS011;3204;42.698;23.298;2023-08-30T10:24:42;4.70;;;4.40;;
6342;SDS011;3204;42.698;23.298;2023-08-30T10:27:13;5.82;;;4.97;;
6342;SDS011;3204;42.698;23.298;2023-08-30T10:29:41;4.95;;;4.55;;
6342;SDS011;3204;42.698;23.298;2023-08-30T10:32:08;5.70;;;5.20;;
6342;SDS011;3204;42.698;23.298;2023-08-30T10:34:36;5.57;;;5.18;;
6342;SDS011;3204;42.698;23.298;2023-08-30T10:37:03;6.55;;;5.20;;
6342;SDS011;3204;42.698;23.298;2023-08-30T10:39:35;5.47;;;5.10;;
6342;SDS011;3204;42.698;23.298;2023-08-30T10:42:11;7.30;;;4.82;;
6342;SDS011;3204;42.698;23.298;2023-08-30T10:44:48;5.75;;;5.25;;
6342;SDS011;3204;42.698;23.298;2023-08-30T10:47:21;7.10;;;5.20;;
6342;SDS011;3204;42.698;23.298;2023-08-30T10:49:48;9.32;;;4.97;;
6342;SDS011;3204;42.698;23.298;2023-08-30T10:52:14;5.80;;;5.28;;
6342;SDS011;3204;42.698;23.298;2023-08-30T10:54:40;5.80;;;5.30;;
6342;SDS011;3204;42.698;23.298;2023-08-30T10:57:05;5.78;;;5.28;;
6342;SDS011;3204;42.698;23.298;2023-08-30T10:59:37;5.25;;;4.93;;
6342;SDS011;3204;42.698;23.298;2023-08-30T11:02:02;7.55;;;5.43;;
6342;SDS011;3204;42.698;23.298;2023-08-30T11:04:30;6.35;;;5.15;;
6342;SDS011;3204;42.698;23.298;2023-08-30T11:06:55;7.75;;;6.05;;
6342;SDS011;3204;42.698;23.298;2023-08-30T11:09:23;5.18;;;4.78;;
6342;SDS011;3204;42.698;23.298;2023-08-30T11:11:49;8.27;;;5.50;;
6342;SDS011;3204;42.698;23.298;2023-08-30T11:14:16;9.38;;;5.82;;
6342;SDS011;3204;42.698;23.298;2023-08-30T11:16:42;6.85;;;6.20;;
6342;SDS011;3204;42.698;23.298;2023-08-30T11:19:08;5.88;;;5.13;;
6342;SDS011;3204;42.698;23.298;2023-08-30T11:21:37;6.75;;;5.20;;
6342;SDS011;3204;42.698;23.298;2023-08-30T11:24:04;4.88;;;4.47;;
6342;SDS011;3204;42.698;23.298;2023-08-30T11:26:31;5.53;;;4.97;;
6342;SDS011;3204;42.698;23.298;2023-08-30T11:28:57;7.22;;;5.10;;
6342;SDS011;3204;42.698;23.298;2023-08-30T11:31:22;5.10;;;4.72;;
6342;SDS011;3204;42.698;23.298;2023-08-30T11:33:55;7.95;;;4.50;;
6342;SDS011;3204;42.698;23.298;2023-08-30T11:36:23;6.65;;;4.70;;
6342;SDS011;3204;42.698;23.298;2023-08-30T11:38:54;6.75;;;4.95;;
6342;SDS011;3204;42.698;23.298;2023-08-30T11:41:20;5.32;;;5.03;;
6342;SDS011;3204;42.698;23.298;2023-08-30T11:43:50;5.13;;;4.80;;
6342;SDS011;3204;42.698;23.298;2023-08-30T11:46:16;5.10;;;4.63;;
6342;SDS011;3204;42.698;23.298;2023-08-30T11:48:42;4.95;;;4.65;;
6342;SDS011;3204;42.698;23.298;2023-08-30T11:51:09;5.00;;;4.70;;
6342;SDS011;3204;42.698;23.298;2023-08-30T11:53:35;5.45;;;4.40;;
6342;SDS011;3204;42.698;23.298;2023-08-30T11:56:02;4.88;;;4.47;;
6342;SDS011;3204;42.698;23.298;2023-08-30T11:58:31;4.50;;;4.22;;
6342;SDS011;3204;42.698;23.298;2023-08-30T12:00:58;4.25;;;4.00;;
6342;SDS011;3204;42.698;23.298;2023-08-30T12:03:23;4.50;;;4.20;;
6342;SDS011;3204;42.698;23.298;2023-08-30T12:05:52;4.90;;;4.50;;
6342;SDS011;3204;42.698;23.298;2023-08-30T12:08:18;5.63;;;5.13;;
6342;SDS011;3204;42.698;23.298;2023-08-30T12:11:01;6.22;;;5.57;;
6342;SDS011;3204;42.698;23.298;2023-08-30T12:13:34;5.45;;;5.05;;
6342;SDS011;3204;42.698;23.298;2023-08-30T12:16:00;5.30;;;4.90;;
6342;SDS011;3204;42.698;23.298;2023-08-30T12:18:28;6.03;;;5.50;;
6342;SDS011;3204;42.698;23.298;2023-08-30T12:20:57;4.78;;;4.57;;
6342;SDS011;3204;42.698;23.298;2023-08-30T12:23:25;5.93;;;5.35;;
6342;SDS011;3204;42.698;23.298;2023-08-30T12:25:58;5.95;;;5.55;;
6342;SDS011;3204;42.698;23.298;2023-08-30T12:28:28;5.30;;;4.90;;
6342;SDS011;3204;42.698;23.298;2023-08-30T12:30:54;5.38;;;5.07;;
6342;SDS011;3204;42.698;23.298;2023-08-30T12:33:20;5.03;;;4.60;;
6342;SDS011;3204;42.698;23.298;2023-08-30T12:35:46;4.90;;;4.60;;
6342;SDS011;3204;42.698;23.298;2023-08-30T12:38:12;9.05;;;5.13;;
6342;SDS011;3204;42.698;23.298;2023-08-30T12:40:42;7.95;;;5.80;;
6342;SDS011;3204;42.698;23.298;2023-08-30T12:43:12;9.18;;;5.13;;
6342;SDS011;3204;42.698;23.298;2023-08-30T12:45:38;5.38;;;4.88;;
6342;SDS011;3204;42.698;23.298;2023-08-30T12:48:05;5.32;;;4.68;;
6342;SDS011;3204;42.698;23.298;2023-08-30T12:50:31;4.97;;;4.57;;
6342;SDS011;3204;42.698;23.298;2023-08-30T12:52:56;4.82;;;4.32;;
6342;SDS011;3204;42.698;23.298;2023-08-30T12:55:22;12.73;;;5.20;;
6342;SDS011;3204;42.698;23.298;2023-08-30T12:57:48;5.18;;;4.75;;
6342;SDS011;3204;42.698;23.298;2023-08-30T13:00:13;5.35;;;4.85;;
6342;SDS011;3204;42.698;23.298;2023-08-30T13:02:39;4.90;;;4.55;;
6342;SDS011;3204;42.698;23.298;2023-08-30T13:05:05;5.05;;;4.72;;
6342;SDS011;3204;42.698;23.298;2023-08-30T13:07:31;5.28;;;4.90;;
6342;SDS011;3204;42.698;23.298;2023-08-30T13:09:56;4.78;;;4.47;;
6342;SDS011;3204;42.698;23.298;2023-08-30T13:12:22;4.85;;;4.53;;
6342;SDS011;3204;42.698;23.298;2023-08-30T13:14:47;4.32;;;4.00;;
6342;SDS011;3204;42.698;23.298;2023-08-30T13:17:13;4.78;;;4.38;;
6342;SDS011;3204;42.698;23.298;2023-08-30T13:19:42;4.70;;;4.40;;
6342;SDS011;3204;42.698;23.298;2023-08-30T13:22:07;4.85;;;4.10;;
6342;SDS011;3204;42.698;23.298;2023-08-30T13:24:34;4.53;;;4.20;;
6342;SDS011;3204;42.698;23.298;2023-08-30T13:27:00;5.10;;;4.70;;
6342;SDS011;3204;42.698;23.298;2023-08-30T13:29:26;4.72;;;4.13;;
6342;SDS011;3204;42.698;23.298;2023-08-30T13:31:51;4.45;;;4.05;;
6342;SDS011;3204;42.698;23.298;2023-08-30T13:34:17;4.35;;;3.80;;
6342;SDS011;3204;42.698;23.298;2023-08-30T13:36:42;4.40;;;4.05;;
6342;SDS011;3204;42.698;23.298;2023-08-30T13:39:08;6.00;;;4.45;;
6342;SDS011;3204;42.698;23.298;2023-08-30T13:41:33;6.38;;;4.00;;
6342;SDS011;3204;42.698;23.298;2023-08-30T13:44:00;4.22;;;3.90;;
6342;SDS011;3204;42.698;23.298;2023-08-30T13:46:28;4.53;;;4.15;;
6342;SDS011;3204;42.698;23.298;2023-08-30T13:48:57;5.95;;;4.47;;
6342;SDS011;3204;42.698;23.298;2023-08-30T13:51:22;3.90;;;3.70;;
6342;SDS011;3204;42.698;23.298;2023-08-30T13:53:51;4.55;;;4.00;;
6342;SDS011;3204;42.698;23.298;2023-08-30T13:56:20;5.00;;;4.20;;
6342;SDS011;3204;42.698;23.298;2023-08-30T13:58:46;5.28;;;4.25;;
6342;SDS011;3204;42.698;23.298;2023-08-30T14:01:11;4.18;;;3.67;;
6342;SDS011;3204;42.698;23.298;2023-08-30T14:03:37;4.30;;;4.00;;
6342;SDS011;3204;42.698;23.298;2023-08-30T14:06:02;5.10;;;4.05;;
6342;SDS011;3204;42.698;23.298;2023-08-30T14:08:28;4.43;;;3.83;;
6342;SDS011;3204;42.698;23.298;2023-08-30T14:10:56;4.25;;;3.83;;
6342;SDS011;3204;42.698;23.298;2023-08-30T14:13:22;4.40;;;4.00;;
6342;SDS011;3204;42.698;23.298;2023-08-30T14:15:48;4.60;;;3.50;;
6342;SDS011;3204;42.698;23.298;2023-08-30T14:18:13;3.78;;;3.47;;
6342;SDS011;3204;42.698;23.298;2023-08-30T14:20:40;3.42;;;3.22;;
6342;SDS011;3204;42.698;23.298;2023-08-30T14:23:06;6.80;;;3.90;;
6342;SDS011;3204;42.698;23.298;2023-08-30T14:25:32;4.00;;;3.70;;
6342;SDS011;3204;42.698;23.298;2023-08-30T14:27:58;8.13;;;3.35;;
6342;SDS011;3204;42.698;23.298;2023-08-30T14:30:24;5.32;;;3.10;;
6342;SDS011;3204;42.698;23.298;2023-08-30T14:32:50;4.20;;;3.40;;
6342;SDS011;3204;42.698;23.298;2023-08-30T14:35:16;3.40;;;3.20;;
6342;SDS011;3204;42.698;23.298;2023-08-30T14:37:41;3.30;;;3.00;;
6342;SDS011;3204;42.698;23.298;2023-08-30T14:40:07;3.70;;;3.40;;
6342;SDS011;3204;42.698;23.298;2023-08-30T14:42:33;4.90;;;3.22;;
6342;SDS011;3204;42.698;23.298;2023-08-30T14:44:58;4.85;;;3.60;;
6342;SDS011;3204;42.698;23.298;2023-08-30T14:47:24;3.78;;;3.40;;
6342;SDS011;3204;42.698;23.298;2023-08-30T14:49:49;4.63;;;3.25;;
6342;SDS011;3204;42.698;23.298;2023-08-30T14:52:15;4.90;;;3.70;;
6342;SDS011;3204;42.698;23.298;2023-08-30T14:54:41;4.07;;;3.78;;
6342;SDS011;3204;42.698;23.298;2023-08-30T14:57:08;5.90;;;3.67;;
6342;SDS011;3204;42.698;23.298;2023-08-30T14:59:33;6.03;;;3.63;;
6342;SDS011;3204;42.698;23.298;2023-08-30T15:01:59;8.48;;;3.40;;
6342;SDS011;3204;42.698;23.298;2023-08-30T15:04:24;3.92;;;3.40;;
6342;SDS011;3204;42.698;23.298;2023-08-30T15:06:50;6.45;;;3.30;;
6342;SDS011;3204;42.698;23.298;2023-08-30T15:09:16;9.07;;;3.42;;
6342;SDS011;3204;42.698;23.298;2023-08-30T15:11:42;3.38;;;3.08;;
6342;SDS011;3204;42.698;23.298;2023-08-30T15:14:08;3.70;;;3.22;;
6342;SDS011;3204;42.698;23.298;2023-08-30T15:16:34;5.78;;;3.38;;
6342;SDS011;3204;42.698;23.298;2023-08-30T15:18:59;4.15;;;3.72;;
6342;SDS011;3204;42.698;23.298;2023-08-30T15:21:25;3.50;;;3.20;;
6342;SDS011;3204;42.698;23.298;2023-08-30T15:23:50;10.00;;;2.83;;
6342;SDS011;3204;42.698;23.298;2023-08-30T15:26:16;4.18;;;3.13;;
6342;SDS011;3204;42.698;23.298;2023-08-30T15:28:42;5.97;;;2.75;;
6342;SDS011;3204;42.698;23.298;2023-08-30T15:31:11;3.03;;;2.83;;
6342;SDS011;3204;42.698;23.298;2023-08-30T15:33:40;3.47;;;3.17;;
6342;SDS011;3204;42.698;23.298;2023-08-30T15:36:06;5.22;;;2.80;;
6342;SDS011;3204;42.698;23.298;2023-08-30T15:38:32;5.00;;;3.10;;
6342;SDS011;3204;42.698;23.298;2023-08-30T15:40:59;4.28;;;3.08;;
6342;SDS011;3204;42.698;23.298;2023-08-30T15:43:24;6.13;;;3.17;;
6342;SDS011;3204;42.698;23.298;2023-08-30T15:45:50;3.38;;;3.17;;
6342;SDS011;3204;42.698;23.298;2023-08-30T15:54:58;7.20;;;2.88;;
6342;SDS011;3204;42.698;23.298;2023-08-30T15:57:24;4.50;;;3.15;;
6342;SDS011;3204;42.698;23.298;2023-08-30T15:59:50;4.82;;;3.38;;
6342;SDS011;3204;42.698;23.298;2023-08-30T16:02:16;3.67;;;3.20;;
6342;SDS011;3204;42.698;23.298;2023-08-30T16:04:41;10.00;;;3.50;;
6342;SDS011;3204;42.698;23.298;2023-08-30T16:07:07;5.53;;;2.80;;
6342;SDS011;3204;42.698;23.298;2023-08-30T16:09:32;3.15;;;2.95;;
6342;SDS011;3204;42.698;23.298;2023-08-30T16:11:58;2.92;;;2.67;;
6342;SDS011;3204;42.698;23.298;2023-08-30T16:14:23;3.30;;;2.95;;
6342;SDS011;3204;42.698;23.298;2023-08-30T16:16:49;4.15;;;2.90;;
6342;SDS011;3204;42.698;23.298;2023-08-30T16:19:14;5.95;;;2.90;;
6342;SDS011;3204;42.698;23.298;2023-08-30T16:21:40;6.43;;;3.47;;
6342;SDS011;3204;42.698;23.298;2023-08-30T16:24:05;5.18;;;2.63;;
6342;SDS011;3204;42.698;23.298;2023-08-30T16:26:31;3.45;;;3.15;;
6342;SDS011;3204;42.698;23.298;2023-08-30T16:28:56;3.58;;;3.25;;
6342;SDS011;3204;42.698;23.298;2023-08-30T16:31:27;4.97;;;2.63;;
6342;SDS011;3204;42.698;23.298;2023-08-30T16:33:54;4.97;;;3.15;;
6342;SDS011;3204;42.698;23.298;2023-08-30T16:36:19;9.25;;;3.33;;
6342;SDS011;3204;42.698;23.298;2023-08-30T16:38:45;3.85;;;2.95;;
6342;SDS011;3204;42.698;23.298;2023-08-30T19:41:51;9.70;;;6.30;;
6342;SDS011;3204;42.698;23.298;2023-08-30T19:44:17;12.52;;;6.72;;
6342;SDS011;3204;42.698;23.298;2023-08-30T19:46:42;12.35;;;5.90;;
6342;SDS011;3204;42.698;23.298;2023-08-30T19:49:08;9.10;;;5.68;;
6342;SDS011;3204;42.698;23.298;2023-08-30T19:51:33;8.35;;;5.68;;
6342;SDS011;3204;42.698;23.298;2023-08-30T19:53:58;9.48;;;5.50;;
6342;SDS011;3204;42.698;23.298;2023-08-30T19:56:24;9.50;;;5.03;;
6342;SDS011;3204;42.698;23.298;2023-08-30T19:58:49;7.35;;;5.35;;
6342;SDS011;3204;42.698;23.298;2023-08-30T20:01:15;10.73;;;5.47;;
6342;SDS011;3204;42.698;23.298;2023-08-30T20:03:43;6.65;;;5.75;;
6342;SDS011;3204;42.698;23.298;2023-08-30T20:06:08;9.00;;;5.70;;
6342;SDS011;3204;42.698;23.298;2023-08-30T20:08:34;9.57;;;5.20;;
6342;SDS011;3204;42.698;23.298;2023-08-30T20:11:00;7.90;;;5.38;;
6342;SDS011;3204;42.698;23.298;2023-08-30T20:13:28;6.90;;;5.43;;
6342;SDS011;3204;42.698;23.298;2023-08-30T20:16:01;8.60;;;5.55;;
6342;SDS011;3204;42.698;23.298;2023-08-30T20:18:28;10.10;;;6.10;;
6342;SDS011;3204;42.698;23.298;2023-08-30T20:20:53;8.60;;;5.85;;
6342;SDS011;3204;42.698;23.298;2023-08-30T20:23:19;10.35;;;5.72;;
6342;SDS011;3204;42.698;23.298;2023-08-30T20:25:44;12.68;;;6.22;;
6342;SDS011;3204;42.698;23.298;2023-08-30T20:28:10;9.75;;;5.55;;
6342;SDS011;3204;42.698;23.298;2023-08-30T20:30:35;13.10;;;5.53;;
6342;SDS011;3204;42.698;23.298;2023-08-30T20:33:01;6.90;;;4.80;;
6342;SDS011;3204;42.698;23.298;2023-08-30T20:35:26;5.75;;;4.60;;
6342;SDS011;3204;42.698;23.298;2023-08-30T20:37:52;7.95;;;4.35;;
6342;SDS011;3204;42.698;23.298;2023-08-30T20:40:17;7.20;;;4.88;;
6342;SDS011;3204;42.698;23.298;2023-08-30T20:42:43;9.80;;;4.70;;
6342;SDS011;3204;42.698;23.298;2023-08-30T20:45:09;5.07;;;4.57;;
6342;SDS011;3204;42.698;23.298;2023-08-30T20:47:35;5.22;;;4.72;;
6342;SDS011;3204;42.698;23.298;2023-08-30T20:50:05;4.82;;;4.40;;
6342;SDS011;3204;42.698;23.298;2023-08-30T20:52:31;9.05;;;4.82;;
6342;SDS011;3204;42.698;23.298;2023-08-30T20:54:56;12.38;;;5.15;;
6342;SDS011;3204;42.698;23.298;2023-08-30T20:57:25;10.15;;;4.68;;
6342;SDS011;3204;42.698;23.298;2023-08-30T20:59:50;8.57;;;4.32;;
6342;SDS011;3204;42.698;23.298;2023-08-30T21:02:16;9.40;;;5.18;;
6342;SDS011;3204;42.698;23.298;2023-08-30T21:04:41;10.90;;;4.68;;
6342;SDS011;3204;42.698;23.298;2023-08-30T21:07:06;5.32;;;3.70;;
6342;SDS011;3204;42.698;23.298;2023-08-30T21:09:32;8.93;;;3.97;;
6342;SDS011;3204;42.698;23.298;2023-08-30T21:11:57;4.30;;;3.92;;
6342;SDS011;3204;42.698;23.298;2023-08-30T21:14:23;5.78;;;4.03;;
6342;SDS011;3204;42.698;23.298;2023-08-30T21:16:48;5.18;;;4.22;;
6342;SDS011;3204;42.698;23.298;2023-08-30T21:19:14;5.35;;;3.75;;
6342;SDS011;3204;42.698;23.298;2023-08-30T21:21:39;7.20;;;3.90;;
6342;SDS011;3204;42.698;23.298;2023-08-30T21:24:05;4.70;;;4.10;;
6342;SDS011;3204;42.698;23.298;2023-08-30T21:26:33;4.30;;;3.90;;
6342;SDS011;3204;42.698;23.298;2023-08-30T21:28:59;4.88;;;3.88;;
6342;SDS011;3204;42.698;23.298;2023-08-30T21:31:25;5.45;;;4.70;;
6342;SDS011;3204;42.698;23.298;2023-08-30T21:33:50;7.95;;;4.00;;
6342;SDS011;3204;42.698;23.298;2023-08-30T21:36:19;5.35;;;4.22;;
6342;SDS011;3204;42.698;23.298;2023-08-30T21:38:45;6.28;;;3.92;;
6342;SDS011;3204;42.698;23.298;2023-08-30T21:41:10;4.95;;;4.40;;
6342;SDS011;3204;42.698;23.298;2023-08-30T21:43:35;6.07;;;3.97;;
6342;SDS011;3204;42.698;23.298;2023-08-30T21:46:01;7.07;;;3.40;;
6342;SDS011;3204;42.698;23.298;2023-08-30T21:48:27;4.68;;;3.67;;
6342;SDS011;3204;42.698;23.298;2023-08-30T21:50:53;3.70;;;3.40;;
6342;SDS011;3204;42.698;23.298;2023-08-30T21:53:19;4.90;;;3.42;;
6342;SDS011;3204;42.698;23.298;2023-08-30T21:55:44;3.75;;;3.53;;
6342;SDS011;3204;42.698;23.298;2023-08-30T21:58:10;3.42;;;3.10;;
6342;SDS011;3204;42.698;23.298;2023-08-30T22:00:36;6.38;;;3.22;;
6342;SDS011;3204;42.698;23.298;2023-08-30T22:03:01;3.80;;;3.50;;
6342;SDS011;3204;42.698;23.298;2023-08-30T22:05:27;3.17;;;2.97;;
6342;SDS011;3204;42.698;23.298;2023-08-30T22:07:52;4.38;;;3.35;;
6342;SDS011;3204;42.698;23.298;2023-08-30T22:10:18;3.97;;;3.17;;
6342;SDS011;3204;42.698;23.298;2023-08-30T22:12:44;4.47;;;3.22;;
6342;SDS011;3204;42.698;23.298;2023-08-30T22:15:11;3.55;;;3.25;;
6342;SDS011;3204;42.698;23.298;2023-08-30T22:17:43;6.05;;;3.17;;
6342;SDS011;3204;42.698;23.298;2023-08-30T22:20:10;3.30;;;3.10;;
6342;SDS011;3204;42.698;23.298;2023-08-30T22:22:37;3.47;;;2.65;;
6342;SDS011;3204;42.698;23.298;2023-08-30T22:25:07;3.60;;;3.30;;
6342;SDS011;3204;42.698;23.298;2023-08-30T22:27:34;3.40;;;3.20;;
6342;SDS011;3204;42.698;23.298;2023-08-30T22:30:00;3.65;;;2.97;;
6342;SDS011;3204;42.698;23.298;2023-08-30T22:32:26;4.95;;;3.22;;
6342;SDS011;3204;42.698;23.298;2023-08-30T22:34:52;7.18;;;3.20;;